sensor_id;sensor_type;location;lat;lon;timestamp;P1;durP1;ratioP1;P2;durP2;ratioP2
32321;SDS011;61553;48.994;8.940;2023-06-14T00:01:31;7.40;;;4.05;;
32321;SDS011;61553;48.994;8.940;2023-06-14T00:03:59;6.85;;;3.72;;
32321;SDS011;61553;48.994;8.940;2023-06-14T00:06:26;6.93;;;3.90;;
32321;SDS011;61553;48.994;8.940;2023-06-14T00:08:53;8.07;;;4.10;;
32321;SDS011;61553;48.994;8.940;2023-06-14T00:11:19;5.60;;;3.47;;
32321;SDS011;61553;48.994;8.940;2023-06-14T00:13:45;8.63;;;3.63;;
32321;SDS011;61553;48.994;8.940;2023-06-14T00:16:11;7.30;;;3.72;;
32321;SDS011;61553;48.994;8.940;2023-06-14T00:18:37;6.75;;;3.80;;
32321;SDS011;61553;48.994;8.940;2023-06-14T00:21:03;6.45;;;3.72;;
32321;SDS011;61553;48.994;8.940;2023-06-14T00:23:30;10.13;;;3.90;;
32321;SDS011;61553;48.994;8.940;2023-06-14T00:25:55;5.70;;;3.75;;
32321;SDS011;61553;48.994;8.940;2023-06-14T00:28:21;6.20;;;4.22;;
32321;SDS011;61553;48.994;8.940;2023-06-14T00:30:47;5.63;;;3.80;;
32321;SDS011;61553;48.994;8.940;2023-06-14T00:33:13;7.00;;;3.88;;
32321;SDS011;61553;48.994;8.940;2023-06-14T00:35:39;7.55;;;4.03;;
32321;SDS011;61553;48.994;8.940;2023-06-14T00:38:04;7.28;;;4.00;;
32321;SDS011;61553;48.994;8.940;2023-06-14T00:40:30;10.23;;;4.38;;
32321;SDS011;61553;48.994;8.940;2023-06-14T00:42:56;8.15;;;3.92;;
32321;SDS011;61553;48.994;8.940;2023-06-14T00:45:21;6.10;;;3.83;;
32321;SDS011;61553;48.994;8.940;2023-06-14T00:47:47;9.88;;;4.57;;
32321;SDS011;61553;48.994;8.940;2023-06-14T00:50:15;7.70;;;3.70;;
32321;SDS011;61553;48.994;8.940;2023-06-14T00:52:41;8.15;;;3.80;;
32321;SDS011;61553;48.994;8.940;2023-06-14T00:55:07;7.45;;;4.07;;
32321;SDS011;61553;48.994;8.940;2023-06-14T00:57:33;11.38;;;4.00;;
32321;SDS011;61553;48.994;8.940;2023-06-14T01:00:02;6.63;;;4.15;;
32321;SDS011;61553;48.994;8.940;2023-06-14T01:02:29;9.85;;;4.05;;
32321;SDS011;61553;48.994;8.940;2023-06-14T01:04:55;6.53;;;3.45;;
32321;SDS011;61553;48.994;8.940;2023-06-14T01:15:43;7.38;;;4.00;;
32321;SDS011;61553;48.994;8.940;2023-06-14T01:18:09;6.40;;;4.05;;
32321;SDS011;61553;48.994;8.940;2023-06-14T01:23:09;6.68;;;3.60;;
32321;SDS011;61553;48.994;8.940;2023-06-14T01:25:37;6.43;;;4.03;;
32321;SDS011;61553;48.994;8.940;2023-06-14T01:28:05;9.18;;;4.60;;
32321;SDS011;61553;48.994;8.940;2023-06-14T01:30:41;5.88;;;3.78;;
32321;SDS011;61553;48.994;8.940;2023-06-14T01:33:10;9.25;;;4.07;;
32321;SDS011;61553;48.994;8.940;2023-06-14T01:35:44;8.30;;;4.00;;
32321;SDS011;61553;48.994;8.940;2023-06-14T01:38:12;6.25;;;3.85;;
32321;SDS011;61553;48.994;8.940;2023-06-14T01:40:39;8.52;;;4.47;;
32321;SDS011;61553;48.994;8.940;2023-06-14T01:43:05;6.75;;;3.78;;
32321;SDS011;61553;48.994;8.940;2023-06-14T01:45:31;6.43;;;4.30;;
32321;SDS011;61553;48.994;8.940;2023-06-14T01:47:59;6.57;;;3.80;;
32321;SDS011;61553;48.994;8.940;2023-06-14T01:50:31;6.53;;;4.30;;
32321;SDS011;61553;48.994;8.940;2023-06-14T01:52:57;5.45;;;3.53;;
32321;SDS011;61553;48.994;8.940;2023-06-14T01:55:23;6.38;;;4.13;;
32321;SDS011;61553;48.994;8.940;2023-06-14T01:57:52;7.85;;;4.10;;
32321;SDS011;61553;48.994;8.940;2023-06-14T02:00:19;6.93;;;4.28;;
32321;SDS011;61553;48.994;8.940;2023-06-14T02:02:45;7.72;;;4.07;;
32321;SDS011;61553;48.994;8.940;2023-06-14T02:05:11;5.97;;;3.53;;
32321;SDS011;61553;48.994;8.940;2023-06-14T02:07:36;7.38;;;4.20;;
32321;SDS011;61553;48.994;8.940;2023-06-14T02:10:03;11.07;;;4.82;;
32321;SDS011;61553;48.994;8.940;2023-06-14T02:12:29;8.07;;;4.40;;
32321;SDS011;61553;48.994;8.940;2023-06-14T02:14:55;6.97;;;3.80;;
32321;SDS011;61553;48.994;8.940;2023-06-14T02:17:21;7.50;;;5.13;;
32321;SDS011;61553;48.994;8.940;2023-06-14T02:19:47;7.57;;;4.10;;
32321;SDS011;61553;48.994;8.940;2023-06-14T02:22:14;6.85;;;4.00;;
32321;SDS011;61553;48.994;8.940;2023-06-14T02:24:40;8.88;;;5.05;;
32321;SDS011;61553;48.994;8.940;2023-06-14T02:27:06;7.22;;;4.28;;
32321;SDS011;61553;48.994;8.940;2023-06-14T02:29:35;7.78;;;3.95;;
32321;SDS011;61553;48.994;8.940;2023-06-14T02:32:01;7.63;;;5.13;;
32321;SDS011;61553;48.994;8.940;2023-06-14T02:34:26;7.22;;;4.55;;
32321;SDS011;61553;48.994;8.940;2023-06-14T02:36:52;7.93;;;4.57;;
32321;SDS011;61553;48.994;8.940;2023-06-14T02:39:18;9.75;;;4.82;;
32321;SDS011;61553;48.994;8.940;2023-06-14T02:41:45;9.23;;;5.13;;
32321;SDS011;61553;48.994;8.940;2023-06-14T02:44:13;8.50;;;4.65;;
32321;SDS011;61553;48.994;8.940;2023-06-14T02:46:39;9.20;;;5.13;;
32321;SDS011;61553;48.994;8.940;2023-06-14T02:49:04;7.70;;;5.05;;
32321;SDS011;61553;48.994;8.940;2023-06-14T02:51:30;8.45;;;5.70;;
32321;SDS011;61553;48.994;8.940;2023-06-14T02:53:56;7.88;;;4.70;;
32321;SDS011;61553;48.994;8.940;2023-06-14T02:56:21;7.13;;;5.13;;
32321;SDS011;61553;48.994;8.940;2023-06-14T02:58:47;8.02;;;5.00;;
32321;SDS011;61553;48.994;8.940;2023-06-14T03:01:13;9.70;;;4.85;;
32321;SDS011;61553;48.994;8.940;2023-06-14T03:03:39;8.90;;;4.93;;
32321;SDS011;61553;48.994;8.940;2023-06-14T03:06:05;7.60;;;4.97;;
32321;SDS011;61553;48.994;8.940;2023-06-14T03:08:33;7.82;;;4.80;;
32321;SDS011;61553;48.994;8.940;2023-06-14T03:11:04;9.52;;;4.88;;
32321;SDS011;61553;48.994;8.940;2023-06-14T03:13:33;8.52;;;5.43;;
32321;SDS011;61553;48.994;8.940;2023-06-14T03:15:59;8.65;;;5.13;;
32321;SDS011;61553;48.994;8.940;2023-06-14T03:18:27;9.75;;;5.22;;
32321;SDS011;61553;48.994;8.940;2023-06-14T03:20:55;9.32;;;4.78;;
32321;SDS011;61553;48.994;8.940;2023-06-14T03:23:23;7.13;;;4.45;;
32321;SDS011;61553;48.994;8.940;2023-06-14T03:25:50;9.43;;;4.75;;
32321;SDS011;61553;48.994;8.940;2023-06-14T03:28:16;8.10;;;5.18;;
32321;SDS011;61553;48.994;8.940;2023-06-14T03:30:42;7.75;;;4.90;;
32321;SDS011;61553;48.994;8.940;2023-06-14T03:33:08;6.55;;;4.55;;
32321;SDS011;61553;48.994;8.940;2023-06-14T03:35:34;8.07;;;4.68;;
32321;SDS011;61553;48.994;8.940;2023-06-14T03:38:00;11.43;;;5.00;;
32321;SDS011;61553;48.994;8.940;2023-06-14T03:40:25;10.23;;;5.75;;
32321;SDS011;61553;48.994;8.940;2023-06-14T03:42:53;7.70;;;5.07;;
32321;SDS011;61553;48.994;8.940;2023-06-14T03:45:19;7.35;;;5.35;;
32321;SDS011;61553;48.994;8.940;2023-06-14T03:47:45;8.60;;;4.97;;
32321;SDS011;61553;48.994;8.940;2023-06-14T03:50:11;9.13;;;5.47;;
32321;SDS011;61553;48.994;8.940;2023-06-14T03:52:37;9.20;;;5.22;;
32321;SDS011;61553;48.994;8.940;2023-06-14T03:55:03;9.40;;;4.95;;
32321;SDS011;61553;48.994;8.940;2023-06-14T03:57:29;7.85;;;5.15;;
32321;SDS011;61553;48.994;8.940;2023-06-14T03:59:55;11.10;;;5.53;;
32321;SDS011;61553;48.994;8.940;2023-06-14T04:02:21;9.23;;;6.15;;
32321;SDS011;61553;48.994;8.940;2023-06-14T04:04:47;7.95;;;5.32;;
32321;SDS011;61553;48.994;8.940;2023-06-14T04:07:13;9.38;;;5.50;;
32321;SDS011;61553;48.994;8.940;2023-06-14T04:09:40;8.80;;;5.05;;
32321;SDS011;61553;48.994;8.940;2023-06-14T04:12:06;8.07;;;5.35;;
32321;SDS011;61553;48.994;8.940;2023-06-14T04:14:33;6.80;;;4.85;;
32321;SDS011;61553;48.994;8.940;2023-06-14T04:17:00;8.95;;;5.40;;
32321;SDS011;61553;48.994;8.940;2023-06-14T04:19:26;11.45;;;5.85;;
32321;SDS011;61553;48.994;8.940;2023-06-14T04:21:51;8.57;;;5.47;;
32321;SDS011;61553;48.994;8.940;2023-06-14T04:24:17;9.32;;;5.10;;
32321;SDS011;61553;48.994;8.940;2023-06-14T04:26:43;10.52;;;5.72;;
32321;SDS011;61553;48.994;8.940;2023-06-14T04:29:10;11.20;;;5.13;;
32321;SDS011;61553;48.994;8.940;2023-06-14T04:31:39;15.55;;;9.13;;
32321;SDS011;61553;48.994;8.940;2023-06-14T04:34:05;14.63;;;8.13;;
32321;SDS011;61553;48.994;8.940;2023-06-14T04:36:32;13.65;;;7.50;;
32321;SDS011;61553;48.994;8.940;2023-06-14T04:39:03;9.02;;;5.80;;
32321;SDS011;61553;48.994;8.940;2023-06-14T04:41:31;8.98;;;5.32;;
32321;SDS011;61553;48.994;8.940;2023-06-14T04:43:57;10.15;;;5.28;;
32321;SDS011;61553;48.994;8.940;2023-06-14T04:46:26;9.02;;;4.75;;
32321;SDS011;61553;48.994;8.940;2023-06-14T04:48:57;10.23;;;5.03;;
32321;SDS011;61553;48.994;8.940;2023-06-14T04:51:23;7.45;;;4.90;;
32321;SDS011;61553;48.994;8.940;2023-06-14T04:53:55;9.13;;;5.45;;
32321;SDS011;61553;48.994;8.940;2023-06-14T04:56:23;9.10;;;5.47;;
32321;SDS011;61553;48.994;8.940;2023-06-14T04:58:51;9.23;;;5.35;;
32321;SDS011;61553;48.994;8.940;2023-06-14T05:01:18;8.43;;;4.40;;
32321;SDS011;61553;48.994;8.940;2023-06-14T05:03:46;9.02;;;4.30;;
32321;SDS011;61553;48.994;8.940;2023-06-14T05:06:14;8.50;;;4.53;;
32321;SDS011;61553;48.994;8.940;2023-06-14T05:08:40;6.72;;;3.88;;
32321;SDS011;61553;48.994;8.940;2023-06-14T05:11:06;11.55;;;4.18;;
32321;SDS011;61553;48.994;8.940;2023-06-14T05:13:32;7.00;;;4.20;;
32321;SDS011;61553;48.994;8.940;2023-06-14T05:15:59;7.60;;;4.28;;
32321;SDS011;61553;48.994;8.940;2023-06-14T05:18:25;7.63;;;4.18;;
32321;SDS011;61553;48.994;8.940;2023-06-14T05:20:51;7.10;;;5.05;;
32321;SDS011;61553;48.994;8.940;2023-06-14T05:23:17;10.10;;;4.78;;
32321;SDS011;61553;48.994;8.940;2023-06-14T05:25:43;6.30;;;4.13;;
32321;SDS011;61553;48.994;8.940;2023-06-14T05:28:10;8.38;;;4.97;;
32321;SDS011;61553;48.994;8.940;2023-06-14T05:30:37;7.57;;;4.88;;
32321;SDS011;61553;48.994;8.940;2023-06-14T05:33:03;5.65;;;4.07;;
32321;SDS011;61553;48.994;8.940;2023-06-14T05:35:30;8.00;;;4.35;;
32321;SDS011;61553;48.994;8.940;2023-06-14T05:37:56;7.15;;;4.63;;
32321;SDS011;61553;48.994;8.940;2023-06-14T05:40:21;6.13;;;4.35;;
32321;SDS011;61553;48.994;8.940;2023-06-14T05:42:47;6.72;;;4.80;;
32321;SDS011;61553;48.994;8.940;2023-06-14T05:45:12;9.98;;;4.35;;
32321;SDS011;61553;48.994;8.940;2023-06-14T05:47:40;9.57;;;4.50;;
32321;SDS011;61553;48.994;8.940;2023-06-14T05:50:05;12.20;;;4.45;;
32321;SDS011;61553;48.994;8.940;2023-06-14T05:52:32;7.28;;;4.40;;
32321;SDS011;61553;48.994;8.940;2023-06-14T05:54:59;5.70;;;4.38;;
32321;SDS011;61553;48.994;8.940;2023-06-14T05:57:25;8.40;;;4.38;;
32321;SDS011;61553;48.994;8.940;2023-06-14T05:59:50;11.32;;;4.68;;
32321;SDS011;61553;48.994;8.940;2023-06-14T06:02:16;7.85;;;4.32;;
32321;SDS011;61553;48.994;8.940;2023-06-14T06:04:42;6.88;;;4.20;;
32321;SDS011;61553;48.994;8.940;2023-06-14T06:07:07;6.53;;;4.18;;
32321;SDS011;61553;48.994;8.940;2023-06-14T06:09:33;8.40;;;4.45;;
32321;SDS011;61553;48.994;8.940;2023-06-14T06:11:58;8.45;;;4.68;;
32321;SDS011;61553;48.994;8.940;2023-06-14T06:14:24;7.30;;;4.50;;
32321;SDS011;61553;48.994;8.940;2023-06-14T06:16:50;9.32;;;4.47;;
32321;SDS011;61553;48.994;8.940;2023-06-14T06:19:17;9.38;;;4.70;;
32321;SDS011;61553;48.994;8.940;2023-06-14T06:21:43;8.55;;;4.75;;
32321;SDS011;61553;48.994;8.940;2023-06-14T06:24:09;9.25;;;4.65;;
32321;SDS011;61553;48.994;8.940;2023-06-14T06:26:34;9.10;;;4.03;;
32321;SDS011;61553;48.994;8.940;2023-06-14T06:29:00;7.97;;;3.97;;
32321;SDS011;61553;48.994;8.940;2023-06-14T06:31:26;9.25;;;4.25;;
32321;SDS011;61553;48.994;8.940;2023-06-14T06:33:52;6.68;;;4.10;;
32321;SDS011;61553;48.994;8.940;2023-06-14T06:36:19;8.48;;;4.05;;
32321;SDS011;61553;48.994;8.940;2023-06-14T06:38:46;6.90;;;4.57;;
32321;SDS011;61553;48.994;8.940;2023-06-14T06:41:12;8.07;;;4.47;;
32321;SDS011;61553;48.994;8.940;2023-06-14T06:43:38;6.88;;;4.53;;
32321;SDS011;61553;48.994;8.940;2023-06-14T06:46:03;6.13;;;3.80;;
32321;SDS011;61553;48.994;8.940;2023-06-14T06:48:29;6.90;;;4.05;;
32321;SDS011;61553;48.994;8.940;2023-06-14T06:50:55;8.13;;;4.28;;
32321;SDS011;61553;48.994;8.940;2023-06-14T06:53:21;9.65;;;4.45;;
32321;SDS011;61553;48.994;8.940;2023-06-14T06:55:47;8.25;;;4.05;;
32321;SDS011;61553;48.994;8.940;2023-06-14T06:58:13;6.30;;;4.13;;
32321;SDS011;61553;48.994;8.940;2023-06-14T07:00:39;7.13;;;4.35;;
32321;SDS011;61553;48.994;8.940;2023-06-14T07:03:05;8.27;;;3.88;;
32321;SDS011;61553;48.994;8.940;2023-06-14T07:05:31;5.90;;;3.80;;
32321;SDS011;61553;48.994;8.940;2023-06-14T07:07:57;7.75;;;4.20;;
32321;SDS011;61553;48.994;8.940;2023-06-14T07:10:23;9.50;;;4.30;;
32321;SDS011;61553;48.994;8.940;2023-06-14T07:12:49;7.75;;;4.45;;
32321;SDS011;61553;48.994;8.940;2023-06-14T07:15:18;6.90;;;4.03;;
32321;SDS011;61553;48.994;8.940;2023-06-14T07:17:43;7.40;;;3.70;;
32321;SDS011;61553;48.994;8.940;2023-06-14T07:20:09;5.50;;;3.80;;
32321;SDS011;61553;48.994;8.940;2023-06-14T07:22:41;7.90;;;3.50;;
32321;SDS011;61553;48.994;8.940;2023-06-14T07:25:08;6.85;;;4.00;;
32321;SDS011;61553;48.994;8.940;2023-06-14T07:27:37;6.82;;;4.07;;
32321;SDS011;61553;48.994;8.940;2023-06-14T07:30:03;5.57;;;4.25;;
32321;SDS011;61553;48.994;8.940;2023-06-14T07:32:29;7.00;;;4.05;;
32321;SDS011;61553;48.994;8.940;2023-06-14T07:34:55;8.15;;;4.35;;
32321;SDS011;61553;48.994;8.940;2023-06-14T07:37:20;5.72;;;4.28;;
32321;SDS011;61553;48.994;8.940;2023-06-14T07:39:46;9.10;;;4.07;;
32321;SDS011;61553;48.994;8.940;2023-06-14T07:42:12;5.95;;;3.95;;
32321;SDS011;61553;48.994;8.940;2023-06-14T07:44:37;9.20;;;4.00;;
32321;SDS011;61553;48.994;8.940;2023-06-14T07:47:03;7.13;;;3.60;;
32321;SDS011;61553;48.994;8.940;2023-06-14T07:49:29;7.95;;;3.78;;
32321;SDS011;61553;48.994;8.940;2023-06-14T07:51:55;7.45;;;3.63;;
32321;SDS011;61553;48.994;8.940;2023-06-14T07:54:21;6.78;;;3.70;;
32321;SDS011;61553;48.994;8.940;2023-06-14T07:56:50;7.45;;;3.97;;
32321;SDS011;61553;48.994;8.940;2023-06-14T07:59:16;5.40;;;3.67;;
32321;SDS011;61553;48.994;8.940;2023-06-14T08:01:42;6.95;;;4.10;;
32321;SDS011;61553;48.994;8.940;2023-06-14T08:04:12;6.00;;;3.67;;
32321;SDS011;61553;48.994;8.940;2023-06-14T08:06:38;5.68;;;4.07;;
32321;SDS011;61553;48.994;8.940;2023-06-14T08:09:04;5.10;;;3.70;;
32321;SDS011;61553;48.994;8.940;2023-06-14T08:11:30;7.68;;;4.78;;
32321;SDS011;61553;48.994;8.940;2023-06-14T08:13:56;11.48;;;4.45;;
32321;SDS011;61553;48.994;8.940;2023-06-14T08:16:22;4.90;;;3.30;;
32321;SDS011;61553;48.994;8.940;2023-06-14T08:18:48;5.50;;;3.45;;
32321;SDS011;61553;48.994;8.940;2023-06-14T08:21:13;7.47;;;3.78;;
32321;SDS011;61553;48.994;8.940;2023-06-14T08:23:40;11.32;;;4.07;;
32321;SDS011;61553;48.994;8.940;2023-06-14T08:26:08;8.32;;;4.05;;
32321;SDS011;61553;48.994;8.940;2023-06-14T08:28:34;6.88;;;4.03;;
32321;SDS011;61553;48.994;8.940;2023-06-14T08:31:00;5.90;;;3.55;;
32321;SDS011;61553;48.994;8.940;2023-06-14T08:33:26;5.70;;;3.90;;
32321;SDS011;61553;48.994;8.940;2023-06-14T08:35:52;5.63;;;3.72;;
32321;SDS011;61553;48.994;8.940;2023-06-14T08:38:18;6.55;;;4.30;;
32321;SDS011;61553;48.994;8.940;2023-06-14T08:40:43;6.18;;;4.20;;
32321;SDS011;61553;48.994;8.940;2023-06-14T08:43:12;5.95;;;3.67;;
32321;SDS011;61553;48.994;8.940;2023-06-14T08:45:38;5.80;;;3.70;;
32321;SDS011;61553;48.994;8.940;2023-06-14T08:48:04;7.03;;;4.00;;
32321;SDS011;61553;48.994;8.940;2023-06-14T08:50:32;5.90;;;4.10;;
32321;SDS011;61553;48.994;8.940;2023-06-14T08:53:00;8.40;;;4.20;;
32321;SDS011;61553;48.994;8.940;2023-06-14T08:55:27;6.75;;;3.65;;
32321;SDS011;61553;48.994;8.940;2023-06-14T08:57:57;6.45;;;3.88;;
32321;SDS011;61553;48.994;8.940;2023-06-14T09:00:26;7.20;;;3.58;;
32321;SDS011;61553;48.994;8.940;2023-06-14T09:02:53;7.55;;;3.42;;
32321;SDS011;61553;48.994;8.940;2023-06-14T09:05:25;7.13;;;3.58;;
32321;SDS011;61553;48.994;8.940;2023-06-14T09:07:52;8.23;;;4.13;;
32321;SDS011;61553;48.994;8.940;2023-06-14T09:10:20;6.93;;;3.45;;
32321;SDS011;61553;48.994;8.940;2023-06-14T09:12:46;6.82;;;3.70;;
32321;SDS011;61553;48.994;8.940;2023-06-14T09:15:12;9.18;;;3.67;;
32321;SDS011;61553;48.994;8.940;2023-06-14T09:17:39;9.02;;;3.95;;
32321;SDS011;61553;48.994;8.940;2023-06-14T09:20:06;6.30;;;3.70;;
32321;SDS011;61553;48.994;8.940;2023-06-14T09:22:39;7.05;;;3.88;;
32321;SDS011;61553;48.994;8.940;2023-06-14T09:25:06;7.50;;;3.70;;
32321;SDS011;61553;48.994;8.940;2023-06-14T09:27:32;6.22;;;3.58;;
32321;SDS011;61553;48.994;8.940;2023-06-14T09:29:58;10.90;;;3.88;;
32321;SDS011;61553;48.994;8.940;2023-06-14T09:32:24;8.60;;;3.83;;
32321;SDS011;61553;48.994;8.940;2023-06-14T09:34:50;5.78;;;3.33;;
32321;SDS011;61553;48.994;8.940;2023-06-14T09:37:26;6.60;;;3.42;;
32321;SDS011;61553;48.994;8.940;2023-06-14T09:39:56;6.40;;;3.80;;
32321;SDS011;61553;48.994;8.940;2023-06-14T09:42:22;7.85;;;3.30;;
32321;SDS011;61553;48.994;8.940;2023-06-14T09:44:51;4.75;;;3.33;;
32321;SDS011;61553;48.994;8.940;2023-06-14T09:47:19;5.57;;;3.70;;
32321;SDS011;61553;48.994;8.940;2023-06-14T09:49:45;7.70;;;3.30;;
32321;SDS011;61553;48.994;8.940;2023-06-14T09:52:13;7.63;;;3.30;;
32321;SDS011;61553;48.994;8.940;2023-06-14T09:54:48;5.72;;;3.30;;
32321;SDS011;61553;48.994;8.940;2023-06-14T09:57:16;6.78;;;3.15;;
32321;SDS011;61553;48.994;8.940;2023-06-14T09:59:45;5.47;;;3.53;;
32321;SDS011;61553;48.994;8.940;2023-06-14T10:02:22;6.05;;;3.20;;
32321;SDS011;61553;48.994;8.940;2023-06-14T10:05:07;6.97;;;3.40;;
32321;SDS011;61553;48.994;8.940;2023-06-14T10:07:40;7.47;;;3.75;;
32321;SDS011;61553;48.994;8.940;2023-06-14T10:10:09;7.97;;;3.60;;
32321;SDS011;61553;48.994;8.940;2023-06-14T10:12:35;8.05;;;4.25;;
32321;SDS011;61553;48.994;8.940;2023-06-14T10:15:01;8.50;;;3.80;;
32321;SDS011;61553;48.994;8.940;2023-06-14T10:20:17;4.85;;;3.17;;
32321;SDS011;61553;48.994;8.940;2023-06-14T10:22:50;5.55;;;3.53;;
32321;SDS011;61553;48.994;8.940;2023-06-14T10:25:27;7.35;;;3.70;;
32321;SDS011;61553;48.994;8.940;2023-06-14T10:28:17;7.13;;;4.07;;
32321;SDS011;61553;48.994;8.940;2023-06-14T10:31:09;7.50;;;3.85;;
32321;SDS011;61553;48.994;8.940;2023-06-14T10:33:50;7.65;;;4.35;;
32321;SDS011;61553;48.994;8.940;2023-06-14T10:38:56;8.52;;;3.88;;
32321;SDS011;61553;48.994;8.940;2023-06-14T10:41:27;6.57;;;3.75;;
32321;SDS011;61553;48.994;8.940;2023-06-14T10:46:38;5.63;;;3.50;;
32321;SDS011;61553;48.994;8.940;2023-06-14T10:49:43;7.60;;;3.90;;
32321;SDS011;61553;48.994;8.940;2023-06-14T10:52:14;10.45;;;3.88;;
32321;SDS011;61553;48.994;8.940;2023-06-14T10:55:02;5.50;;;3.45;;
32321;SDS011;61553;48.994;8.940;2023-06-14T11:00:17;5.65;;;3.72;;
32321;SDS011;61553;48.994;8.940;2023-06-14T11:05:33;7.28;;;3.50;;
32321;SDS011;61553;48.994;8.940;2023-06-14T11:10:58;6.22;;;3.42;;
32321;SDS011;61553;48.994;8.940;2023-06-14T11:13:27;7.35;;;2.88;;
32321;SDS011;61553;48.994;8.940;2023-06-14T11:15:53;5.15;;;3.13;;
32321;SDS011;61553;48.994;8.940;2023-06-14T11:18:21;6.85;;;3.30;;
32321;SDS011;61553;48.994;8.940;2023-06-14T11:20:49;6.78;;;3.55;;
32321;SDS011;61553;48.994;8.940;2023-06-14T11:23:15;5.63;;;3.20;;
32321;SDS011;61553;48.994;8.940;2023-06-14T11:25:41;4.45;;;3.20;;
32321;SDS011;61553;48.994;8.940;2023-06-14T11:28:06;9.65;;;3.38;;
32321;SDS011;61553;48.994;8.940;2023-06-14T11:30:32;7.25;;;3.58;;
32321;SDS011;61553;48.994;8.940;2023-06-14T11:32:58;9.10;;;4.25;;
32321;SDS011;61553;48.994;8.940;2023-06-14T11:35:24;4.50;;;3.38;;
32321;SDS011;61553;48.994;8.940;2023-06-14T11:37:54;7.07;;;3.15;;
32321;SDS011;61553;48.994;8.940;2023-06-14T11:40:23;8.18;;;3.38;;
32321;SDS011;61553;48.994;8.940;2023-06-14T11:42:49;7.90;;;3.20;;
32321;SDS011;61553;48.994;8.940;2023-06-14T11:45:22;6.93;;;4.18;;
32321;SDS011;61553;48.994;8.940;2023-06-14T11:47:48;5.68;;;3.42;;
32321;SDS011;61553;48.994;8.940;2023-06-14T11:50:13;5.78;;;3.50;;
32321;SDS011;61553;48.994;8.940;2023-06-14T11:52:39;7.38;;;3.28;;
32321;SDS011;61553;48.994;8.940;2023-06-14T11:55:05;8.07;;;3.30;;
32321;SDS011;61553;48.994;8.940;2023-06-14T11:57:34;7.70;;;3.78;;
32321;SDS011;61553;48.994;8.940;2023-06-14T12:00:04;7.00;;;3.67;;
32321;SDS011;61553;48.994;8.940;2023-06-14T12:02:37;5.93;;;3.40;;
32321;SDS011;61553;48.994;8.940;2023-06-14T12:05:04;6.50;;;3.30;;
32321;SDS011;61553;48.994;8.940;2023-06-14T12:07:36;8.00;;;3.72;;
32321;SDS011;61553;48.994;8.940;2023-06-14T12:12:34;7.38;;;3.20;;
32321;SDS011;61553;48.994;8.940;2023-06-14T12:15:05;5.57;;;3.25;;
32321;SDS011;61553;48.994;8.940;2023-06-14T12:17:35;8.68;;;3.58;;
32321;SDS011;61553;48.994;8.940;2023-06-14T12:20:07;7.47;;;3.40;;
32321;SDS011;61553;48.994;8.940;2023-06-14T12:25:16;7.63;;;3.25;;
32321;SDS011;61553;48.994;8.940;2023-06-14T12:27:51;7.38;;;3.13;;
32321;SDS011;61553;48.994;8.940;2023-06-14T12:30:18;7.07;;;3.33;;
32321;SDS011;61553;48.994;8.940;2023-06-14T12:32:44;4.65;;;3.08;;
32321;SDS011;61553;48.994;8.940;2023-06-14T12:35:10;8.02;;;3.45;;
32321;SDS011;61553;48.994;8.940;2023-06-14T12:37:36;5.03;;;3.42;;
32321;SDS011;61553;48.994;8.940;2023-06-14T12:40:01;8.00;;;3.67;;
32321;SDS011;61553;48.994;8.940;2023-06-14T12:42:31;7.47;;;3.40;;
32321;SDS011;61553;48.994;8.940;2023-06-14T12:44:58;7.15;;;3.30;;
32321;SDS011;61553;48.994;8.940;2023-06-14T12:47:24;5.85;;;3.35;;
32321;SDS011;61553;48.994;8.940;2023-06-14T12:49:50;7.90;;;3.53;;
32321;SDS011;61553;48.994;8.940;2023-06-14T12:52:15;5.68;;;3.67;;
32321;SDS011;61553;48.994;8.940;2023-06-14T12:54:41;4.78;;;3.10;;
32321;SDS011;61553;48.994;8.940;2023-06-14T12:57:06;4.75;;;3.13;;
32321;SDS011;61553;48.994;8.940;2023-06-14T12:59:32;5.65;;;3.65;;
32321;SDS011;61553;48.994;8.940;2023-06-14T13:02:19;5.78;;;3.10;;
32321;SDS011;61553;48.994;8.940;2023-06-14T13:04:47;6.40;;;3.35;;
32321;SDS011;61553;48.994;8.940;2023-06-14T13:07:13;4.93;;;3.15;;
32321;SDS011;61553;48.994;8.940;2023-06-14T13:09:40;6.93;;;3.33;;
32321;SDS011;61553;48.994;8.940;2023-06-14T13:12:06;5.18;;;3.13;;
32321;SDS011;61553;48.994;8.940;2023-06-14T13:14:32;6.30;;;3.83;;
32321;SDS011;61553;48.994;8.940;2023-06-14T13:16:58;7.13;;;3.45;;
32321;SDS011;61553;48.994;8.940;2023-06-14T13:19:23;6.20;;;3.45;;
32321;SDS011;61553;48.994;8.940;2023-06-14T13:21:49;6.22;;;2.85;;
32321;SDS011;61553;48.994;8.940;2023-06-14T13:24:15;5.90;;;3.30;;
32321;SDS011;61553;48.994;8.940;2023-06-14T13:26:40;10.60;;;4.97;;
32321;SDS011;61553;48.994;8.940;2023-06-14T13:29:06;7.15;;;3.80;;
32321;SDS011;61553;48.994;8.940;2023-06-14T13:31:32;6.03;;;3.45;;
32321;SDS011;61553;48.994;8.940;2023-06-14T13:33:58;5.63;;;3.00;;
32321;SDS011;61553;48.994;8.940;2023-06-14T13:36:23;6.53;;;3.05;;
32321;SDS011;61553;48.994;8.940;2023-06-14T13:38:49;6.78;;;3.42;;
32321;SDS011;61553;48.994;8.940;2023-06-14T13:41:16;5.40;;;3.10;;
32321;SDS011;61553;48.994;8.940;2023-06-14T13:43:42;5.75;;;3.10;;
32321;SDS011;61553;48.994;8.940;2023-06-14T13:46:07;6.25;;;3.72;;
32321;SDS011;61553;48.994;8.940;2023-06-14T13:48:33;7.10;;;3.42;;
32321;SDS011;61553;48.994;8.940;2023-06-14T13:50:59;7.43;;;3.55;;
32321;SDS011;61553;48.994;8.940;2023-06-14T13:53:25;5.25;;;3.53;;
32321;SDS011;61553;48.994;8.940;2023-06-14T13:55:51;5.35;;;2.97;;
32321;SDS011;61553;48.994;8.940;2023-06-14T13:58:17;5.45;;;3.25;;
32321;SDS011;61553;48.994;8.940;2023-06-14T14:00:44;6.60;;;3.95;;
32321;SDS011;61553;48.994;8.940;2023-06-14T14:03:09;5.97;;;3.88;;
32321;SDS011;61553;48.994;8.940;2023-06-14T14:05:36;4.72;;;3.22;;
32321;SDS011;61553;48.994;8.940;2023-06-14T14:08:02;8.40;;;3.20;;
32321;SDS011;61553;48.994;8.940;2023-06-14T14:10:28;5.68;;;3.92;;
32321;SDS011;61553;48.994;8.940;2023-06-14T14:12:54;9.90;;;3.90;;
32321;SDS011;61553;48.994;8.940;2023-06-14T14:15:20;7.28;;;3.45;;
32321;SDS011;61553;48.994;8.940;2023-06-14T14:17:46;5.78;;;3.20;;
32321;SDS011;61553;48.994;8.940;2023-06-14T14:20:12;6.00;;;3.28;;
32321;SDS011;61553;48.994;8.940;2023-06-14T14:22:41;6.95;;;3.30;;
32321;SDS011;61553;48.994;8.940;2023-06-14T14:25:07;7.65;;;3.65;;
32321;SDS011;61553;48.994;8.940;2023-06-14T14:27:33;6.88;;;3.40;;
32321;SDS011;61553;48.994;8.940;2023-06-14T14:29:59;7.78;;;3.50;;
32321;SDS011;61553;48.994;8.940;2023-06-14T14:32:24;6.32;;;3.38;;
32321;SDS011;61553;48.994;8.940;2023-06-14T14:34:50;6.22;;;3.85;;
32321;SDS011;61553;48.994;8.940;2023-06-14T14:37:16;5.28;;;3.40;;
32321;SDS011;61553;48.994;8.940;2023-06-14T14:39:43;5.60;;;3.08;;
32321;SDS011;61553;48.994;8.940;2023-06-14T14:42:09;7.85;;;3.58;;
32321;SDS011;61553;48.994;8.940;2023-06-14T14:44:37;6.72;;;3.58;;
32321;SDS011;61553;48.994;8.940;2023-06-14T14:47:03;5.63;;;3.30;;
32321;SDS011;61553;48.994;8.940;2023-06-14T14:49:28;10.57;;;3.90;;
32321;SDS011;61553;48.994;8.940;2023-06-14T14:51:55;5.63;;;3.10;;
32321;SDS011;61553;48.994;8.940;2023-06-14T14:54:21;6.13;;;3.65;;
32321;SDS011;61553;48.994;8.940;2023-06-14T14:56:48;7.20;;;3.40;;
32321;SDS011;61553;48.994;8.940;2023-06-14T14:59:14;5.93;;;3.55;;
32321;SDS011;61553;48.994;8.940;2023-06-14T15:01:41;5.20;;;3.40;;
32321;SDS011;61553;48.994;8.940;2023-06-14T15:04:06;8.20;;;3.58;;
32321;SDS011;61553;48.994;8.940;2023-06-14T15:06:32;6.05;;;3.33;;
32321;SDS011;61553;48.994;8.940;2023-06-14T15:09:00;6.32;;;3.60;;
32321;SDS011;61553;48.994;8.940;2023-06-14T15:11:26;6.00;;;3.17;;
32321;SDS011;61553;48.994;8.940;2023-06-14T15:13:52;7.95;;;3.65;;
32321;SDS011;61553;48.994;8.940;2023-06-14T15:16:17;8.77;;;3.45;;
32321;SDS011;61553;48.994;8.940;2023-06-14T15:18:43;4.28;;;3.00;;
32321;SDS011;61553;48.994;8.940;2023-06-14T15:21:09;8.27;;;3.42;;